Terminal Aerodrome Forecast
Issued by NWS

Current Version | Previous Version | Graphics & Text | Print | Product List | Glossary On
Versions: 1 2 3 4 5 6 7 8 9 10 11 12 13 14 15 16 17 18 19 20 21 22 23
000
FTUS41 KILN 271124
TAFLUK
TAF
KLUK 271124Z 2712/2812 00000KT P6SM BKN050
     FM271400 04004KT P6SM BKN050
     FM271900 05005KT P6SM SCT050
     FM280000 00000KT P6SM SKC
     FM280400 00000KT 3SM BR SKC
     FM280700 00000KT 1SM BR SKC=

USA.gov is the U.S. government's official web portal to all federal, state and local government web resources and services.